Hovedside
METAR-TAF:

METAR-TAF

Lufthavner :

Kristiansand lufthavn. Kjevik

Kristiansand, Norge

breddegrad: 58-12N, lengdegrad: 008-05E, høyde over havet: 1 m

Gjeldene værobservasjon

Denne rapporten ble laget for 16 minutter siden, klokken 15:20 UTC
Vind 12 kt fra Sør
Temperatur 16°C
Luftfuktighet 36%
Trykk 1031 hPa
Sikt 10 km eller mer
ingen skyer under 1500 m og ingen bygeskyer

METAR: ENCN 201520Z 18012KT CAVOK 16/01 Q1031

Tid: 17:36 (15:36 UTC)

Varsel

Denne rapporten ble laget for 1 time og 36 minutter siden, klokken 14:00 UTC
Varsel gyldig fra 20. klokken 15 UTC til 20. klokken 21 UTC
Vind 12 kt fra Sør
Sikt 10 km eller mer
ingen skyer under 1500 m og ingen bygeskyer
Blir
fra 20. klokken 17 UTC til 20. klokken 19 UTC
Vind 5 kt fra skiftende retning

TAF: ENCN 201400Z 2015/2021 18012KT CAVOK BECMG 2017/2019 VRB05KT

Værobservasjoner og værvarsel for over 4000 flyplasser (METAR- og TAF-rapporter).

Tilgjengelige stasjoner er representert av de røde og gule prikkene på kartet.

Hold musepekeren over prikken for å se navnet på stasjonen.

Klikk så for å se værobservasjoner og -varsler.

For å forandre kartet kan du klikke på den grønne knappen med svart kryss for å zoome inn, på den grønne knappen med strek for å zoome ut, eller på de grønne pilene for å se tilstøtende kart.


METAR-TAF: